.
WxDataArchive / Data Records for 2011-12-15
2011-12-14 December 2011 2011-12-16

Data Records for Thursday, 15 December 2011

Time	Temp	Chill	HIndex	Humid	Dewpt	 Wind 	HiWind	WindDir	Rain 	Barom 
-----	----	-----	------	-----	-----	------	------	-------	-----	----- 
00:00	54.5	54.5	54.5	95	53.1	2	6	248	0.00	29.811 
00:05	54.7	54.7	54.7	95	53.3	2	9	270	0.00	29.811 
00:10	54.7	54.7	54.7	95	53.3	3	9	248	0.01	29.811 
00:15	54.7	54.7	54.7	95	53.3	2	6	248	0.01	29.811 
00:20	54.7	54.7	54.7	95	53.3	2	8	248	0.01	29.811 
00:25	54.8	54.8	54.8	95	53.4	3	7	248	0.01	29.811 
00:30	54.8	54.8	54.8	95	53.4	2	6	270	0.02	29.809 
00:35	54.8	54.8	54.8	95	53.4	2	6	248	0.01	29.809 
00:40	54.8	54.8	54.8	95	53.4	2	6	248	0.02	29.809 
00:45	55.0	55.0	55.0	95	53.6	3	10	270	0.01	29.797 
00:50	55.0	55.0	55.0	95	53.6	2	9	248	0.02	29.797 
00:55	55.0	55.0	55.0	95	53.6	2	10	248	0.01	29.797 
01:00	55.1	55.1	55.1	95	53.7	4	13	248	0.01	29.787 
01:05	55.1	55.1	55.1	95	53.7	3	7	248	0.01	29.787 
01:10	55.1	55.1	55.1	95	53.7	3	9	248	0.00	29.787 
01:15	55.1	55.1	55.1	95	53.7	3	9	248	0.00	29.784 
01:20	55.1	55.1	55.1	95	53.7	3	9	248	0.01	29.784 
01:25	55.1	55.1	55.1	95	53.7	3	13	112	0.01	29.784 
01:30	55.1	55.1	55.1	95	53.7	2	6	248	0.00	29.750 
01:35	55.1	55.1	55.1	95	53.7	2	5	248	0.01	29.750 
01:40	55.1	55.1	55.1	95	53.7	3	11	270	0.00	29.750 
01:45	55.1	55.1	55.1	95	53.7	3	6	248	0.00	29.747 
01:50	55.1	55.1	55.1	95	53.7	3	9	248	0.00	29.747 
01:55	55.1	55.1	55.1	95	53.7	4	12	248	0.00	29.747 
02:00	55.1	55.1	55.1	95	53.7	4	11	270	0.00	29.749 
02:05	55.1	55.1	55.1	95	53.7	3	9	248	0.00	29.749 
02:10	55.3	55.3	55.3	95	53.9	4	11	248	0.00	29.749 
02:15	55.3	55.3	55.3	94	53.6	4	11	248	0.00	29.744 
02:20	55.4	55.4	55.4	94	53.7	4	12	248	0.00	29.744 
02:25	55.3	55.3	55.3	94	53.6	4	13	270	0.00	29.744 
02:30	55.3	55.3	55.3	94	53.6	3	10	248	0.00	29.747 
02:35	55.3	55.3	55.3	94	53.6	3	13	248	0.00	29.747 
02:40	55.3	55.3	55.3	94	53.6	3	9	248	0.00	29.747 
02:45	55.1	55.1	55.1	94	53.4	3	6	248	0.00	29.732 
02:50	55.1	55.1	55.1	94	53.4	3	8	248	0.00	29.732 
02:55	55.1	55.1	55.1	94	53.4	3	8	248	0.00	29.732 
03:00	55.1	55.1	55.1	94	53.4	3	9	248	0.01	29.734 
03:05	55.1	55.1	55.1	94	53.4	3	8	248	0.01	29.734 
03:10	55.1	55.1	55.1	94	53.4	2	9	248	0.02	29.734 
03:15	55.1	55.1	55.1	94	53.4	2	9	270	0.01	29.722 
03:20	55.1	55.1	55.1	94	53.4	2	7	248	0.01	29.722 
03:25	55.1	55.1	55.1	95	53.7	2	6	248	0.00	29.722 
03:30	55.1	55.1	55.1	95	53.7	3	9	248	0.00	29.724 
03:35	55.1	55.1	55.1	95	53.7	3	7	248	0.00	29.724 
03:40	55.1	55.1	55.1	95	53.7	2	6	248	0.00	29.724 
03:45	55.1	55.1	55.1	95	53.7	3	6	248	0.00	29.713 
03:50	55.1	55.1	55.1	95	53.7	3	10	248	0.01	29.713 
03:55	55.1	55.1	55.1	95	53.7	3	10	248	0.00	29.713 
04:00	55.1	55.1	55.1	95	53.7	3	7	248	0.00	29.711 
04:05	55.1	55.1	55.1	95	53.7	3	7	248	0.01	29.711 
04:10	55.1	55.1	55.1	95	53.7	3	7	248	0.00	29.711 
04:15	55.1	55.1	55.1	95	53.7	3	8	248	0.00	29.700 
04:20	55.3	55.3	55.3	95	53.9	2	6	248	0.01	29.700 
04:25	55.3	55.3	55.3	95	53.9	2	6	248	0.00	29.700 
04:30	55.3	55.3	55.3	95	53.9	3	10	248	0.00	29.700 
04:35	55.4	55.4	55.4	95	54.0	3	9	270	0.00	29.700 
04:40	55.4	55.4	55.4	95	54.0	3	5	270	0.00	29.700 
04:45	55.4	55.4	55.4	95	54.0	3	9	248	0.00	29.701 
04:50	55.6	55.6	55.6	95	54.2	3	7	248	0.00	29.701 
04:55	55.6	55.6	55.6	96	54.5	4	11	248	0.00	29.701 
05:00	55.7	55.7	55.7	96	54.6	3	10	248	0.01	29.701 
05:05	55.7	55.7	55.7	96	54.6	3	10	248	0.00	29.701 
05:10	55.7	55.7	55.7	96	54.6	2	10	248	0.00	29.701 
05:15	55.7	55.7	55.7	96	54.6	2	9	248	0.01	29.699 
05:20	55.7	55.7	55.7	96	54.6	3	10	248	0.00	29.699 
05:25	55.7	55.7	55.7	96	54.6	3	7	248	0.00	29.699 
05:30	55.7	55.7	55.7	96	54.6	3	7	270	0.00	29.698 
05:35	55.7	55.7	55.7	96	54.6	3	7	248	0.00	29.698 
05:40	55.7	55.7	55.7	96	54.6	3	8	248	0.01	29.698 
05:45	55.7	55.7	55.7	96	54.6	3	9	248	0.00	29.698 
05:50	55.7	55.7	55.7	96	54.6	3	9	248	0.00	29.698 
05:55	55.7	55.7	55.7	96	54.6	2	12	248	0.00	29.698 
06:00	55.9	55.9	55.9	96	54.8	2	7	248	0.00	29.695 
06:05	55.9	55.9	55.9	96	54.8	3	7	248	0.00	29.695 
06:10	55.9	55.9	55.9	96	54.8	3	10	248	0.01	29.695 
06:15	55.9	55.9	55.9	96	54.8	3	7	248	0.00	29.692 
06:20	55.9	55.9	55.9	96	54.8	2	10	248	0.01	29.692 
06:25	55.9	55.9	55.9	96	54.8	2	6	248	0.00	29.692 
06:30	55.9	55.9	55.9	96	54.8	2	10	248	0.01	29.686 
06:35	55.9	55.9	55.9	96	54.8	2	5	248	0.00	29.686 
06:40	55.9	55.9	55.9	96	54.8	3	7	248	0.00	29.686 
06:45	55.9	55.9	55.9	96	54.8	2	7	248	0.00	29.685 
06:50	55.9	55.9	55.9	96	54.8	2	9	225	0.00	29.685 
06:55	55.9	55.9	55.9	96	54.8	3	10	248	0.00	29.685 
07:00	55.9	55.9	55.9	96	54.8	2	5	248	0.00	29.685 
07:05	55.9	55.9	55.9	96	54.8	3	9	248	0.00	29.685 
07:10	56.0	56.0	56.0	96	54.9	3	7	248	0.00	29.685 
07:15	56.0	56.0	56.0	96	54.9	3	7	248	0.00	29.689 
07:20	56.0	56.0	56.0	96	54.9	2	7	248	0.01	29.689 
07:25	56.0	56.0	56.0	96	54.9	3	9	248	0.00	29.689 
07:30	56.0	56.0	56.0	96	54.9	3	7	248	0.00	29.689 
07:35	56.0	56.0	56.0	96	54.9	3	9	248	0.00	29.689 
07:40	56.0	56.0	56.0	96	54.9	3	9	248	0.00	29.689 
07:45	56.0	56.0	56.0	96	54.9	2	7	248	0.00	29.687 
07:50	56.0	56.0	56.0	96	54.9	2	7	248	0.00	29.687 
07:55	56.2	56.2	56.2	96	55.1	3	10	248	0.00	29.687 
08:00	56.2	56.2	56.2	96	55.1	2	7	248	0.00	29.694 
08:05	56.2	56.2	56.2	96	55.1	3	10	248	0.00	29.694 
08:10	56.3	56.3	56.3	96	55.2	3	7	248	0.00	29.694 
08:15	56.3	56.3	56.3	96	55.2	4	12	248	0.00	29.692 
08:20	56.5	56.5	56.5	96	55.4	3	10	248	0.00	29.692 
08:25	56.5	56.5	56.5	96	55.4	3	10	270	0.00	29.692 
08:30	56.5	56.5	56.5	96	55.4	3	9	248	0.00	29.686 
08:35	56.5	56.5	56.5	96	55.4	2	9	248	0.00	29.686 
08:40	56.5	56.5	56.5	96	55.4	3	6	248	0.00	29.686 
08:45	56.5	56.5	56.5	96	55.4	2	6	248	0.00	29.681 
08:50	56.5	56.5	56.5	95	55.1	2	5	248	0.01	29.681 
08:55	56.5	56.5	56.5	96	55.4	3	7	248	0.01	29.681 
09:00	56.5	56.5	56.5	95	55.1	2	6	248	0.00	29.682 
09:05	56.5	56.5	56.5	95	55.1	3	13	248	0.00	29.682 
09:10	56.5	56.5	56.5	95	55.1	3	10	248	0.00	29.682 
09:15	56.6	56.6	56.6	95	55.2	4	12	248	0.00	29.681 
09:20	56.6	56.6	56.6	95	55.2	3	12	248	0.00	29.681 
09:25	56.6	56.6	56.6	95	55.2	3	9	270	0.00	29.681 
09:30	56.7	56.7	56.7	95	55.3	3	10	248	0.00	29.681 
09:35	56.9	56.9	56.9	95	55.5	3	11	248	0.00	29.681 
09:40	56.9	56.9	56.9	95	55.5	3	7	248	0.00	29.681 
09:45	57.0	57.0	57.0	95	55.6	4	12	248	0.00	29.681 
09:50	57.2	57.2	57.2	94	55.5	4	12	248	0.01	29.681 
09:55	57.2	57.2	57.2	94	55.5	4	10	248	0.00	29.681 
10:00	56.5	56.5	56.5	93	54.5	5	12	270	0.01	29.699 
10:05	56.0	56.0	56.0	92	53.7	4	11	248	0.01	29.699 
10:10	55.4	55.4	55.4	92	53.1	4	11	248	0.00	29.699 
10:15	55.0	55.0	55.0	91	52.4	3	7	248	0.00	29.700 
10:20	54.7	54.7	54.7	91	52.1	2	5	270	0.00	29.700 
10:25	54.5	54.5	54.5	91	51.9	3	6	270	0.00	29.700 
10:30	54.5	54.5	54.5	90	51.6	3	6	248	0.00	29.709 
10:35	54.4	54.4	54.4	90	51.5	3	7	248	0.00	29.709 
10:40	54.5	54.5	54.5	90	51.6	3	9	248	0.01	29.709 
10:45	54.5	54.5	54.5	90	51.6	3	11	248	0.00	29.715 
10:50	54.5	54.5	54.5	90	51.6	3	7	248	0.00	29.715 
10:55	54.5	54.5	54.5	90	51.6	3	9	248	0.00	29.715 
11:00	54.4	54.4	54.4	90	51.5	3	7	248	0.00	29.724 
11:05	54.4	54.4	54.4	90	51.5	4	9	248	0.00	29.724 
11:10	54.4	54.4	54.4	89	51.2	4	9	292	0.00	29.724 
11:15	54.4	54.4	54.4	88	50.9	4	13	270	0.00	29.734 
11:20	54.2	54.2	54.2	87	50.4	5	14	270	0.00	29.734 
11:25	54.2	54.2	54.2	86	50.1	4	7	270	0.00	29.734 
11:30	53.9	53.9	53.9	87	50.1	3	6	270	0.00	29.724 
11:35	53.5	53.5	53.5	86	49.4	5	9	270	0.00	29.724 
11:40	52.9	52.9	52.9	85	48.5	5	9	270	0.00	29.724 
11:45	52.6	52.6	52.6	85	48.2	5	10	270	0.00	29.745 
11:50	52.5	52.5	52.5	84	47.8	5	12	270	0.00	29.745 
11:55	52.5	52.5	52.5	84	47.8	4	7	270	0.00	29.745 
12:00	52.6	52.6	52.6	84	47.9	4	9	270	0.00	29.743 
12:05	52.5	52.5	52.5	84	47.8	3	6	248	0.00	29.743 
12:10	52.2	52.2	52.2	84	47.5	3	7	270	0.00	29.743 
12:15	51.4	51.4	51.4	83	46.4	6	10	270	0.01	29.751 
12:20	51.1	51.1	51.1	83	46.1	5	10	270	0.00	29.751 
12:25	50.8	50.8	50.8	83	45.8	5	10	270	0.00	29.751 
12:30	50.4	50.4	50.4	82	45.1	5	10	270	0.00	29.762 
12:35	50.2	50.2	50.2	82	44.9	4	10	270	0.00	29.762 
12:40	50.1	50.1	50.1	81	44.5	5	10	270	0.00	29.762 
12:45	50.4	50.4	50.4	82	45.1	4	10	270	0.00	29.765 
12:50	50.8	50.8	50.8	81	45.2	5	11	270	0.00	29.765 
12:55	50.7	50.7	50.7	75	43.1	6	13	270	0.00	29.765 
13:00	50.1	50.1	50.1	74	42.1	6	9	270	0.00	29.769 
13:05	49.9	48.1	49.9	75	42.3	5	11	270	0.00	29.769 
13:10	50.1	50.1	50.1	76	42.8	5	9	270	0.00	29.769 
13:15	50.1	50.1	50.1	75	42.5	5	12	270	0.00	29.775 
13:20	49.6	47.7	49.6	75	42.0	5	12	270	0.00	29.775 
13:25	49.2	47.3	49.2	76	42.0	5	10	270	0.00	29.775 
13:30	48.9	46.9	48.9	77	42.0	5	12	270	0.00	29.782 
13:35	48.6	47.3	48.6	77	41.7	4	9	270	0.00	29.782 
13:40	48.2	46.8	48.2	78	41.7	4	8	270	0.00	29.782 
13:45	47.4	44.6	47.4	79	41.2	6	14	270	0.00	29.795 
13:50	46.2	43.8	46.2	78	39.7	5	11	270	0.00	29.795 
13:55	45.7	43.2	45.7	77	38.9	5	9	270	0.00	29.795 
14:00	45.5	42.9	45.5	78	39.0	5	10	270	0.00	29.803 
14:05	45.7	45.7	45.7	77	38.9	3	6	270	0.00	29.803 
14:10	45.4	42.8	45.4	76	38.3	5	9	270	0.00	29.803 
14:15	45.2	42.6	45.2	77	38.4	5	10	270	0.00	29.809 
14:20	45.1	42.5	45.1	76	38.0	5	12	270	0.00	29.809 
14:25	44.9	42.2	44.9	76	37.8	5	10	270	0.00	29.809 
14:30	44.6	41.9	44.6	76	37.5	5	9	270	0.00	29.817 
14:35	44.5	42.5	44.5	76	37.4	4	10	270	0.00	29.817 
14:40	44.3	42.3	44.3	76	37.2	4	7	270	0.00	29.817 
14:45	44.2	42.2	44.2	76	37.1	4	7	292	0.00	29.820 
14:50	44.2	42.2	44.2	76	37.1	4	10	270	0.00	29.820 
14:55	44.1	44.1	44.1	76	37.0	3	6	270	0.00	29.820 
15:00	43.9	41.8	43.9	76	36.8	4	10	270	0.00	29.834 
15:05	43.8	40.9	43.8	77	37.1	5	11	270	0.00	29.834 
15:10	43.6	43.6	43.6	77	36.9	3	7	270	0.00	29.834 
15:15	43.5	41.4	43.5	77	36.8	4	10	270	0.00	29.848 
15:20	43.3	41.1	43.3	78	36.9	4	7	270	0.00	29.848 
15:25	43.3	40.3	43.3	78	36.9	5	9	270	0.00	29.848 
15:30	43.3	41.1	43.3	76	36.3	4	10	270	0.00	29.849 
15:35	43.5	41.4	43.5	75	36.1	4	11	270	0.00	29.849 
15:40	43.5	41.4	43.5	70	34.4	4	11	270	0.00	29.849 
15:45	43.5	41.4	43.5	73	35.4	4	9	270	0.00	29.856 
15:50	43.5	41.4	43.5	73	35.4	4	9	270	0.00	29.856 
15:55	43.3	41.1	43.3	73	35.2	4	9	270	0.00	29.856 
16:00	43.3	43.3	43.3	74	35.6	3	5	248	0.00	29.864 
16:05	43.2	43.2	43.2	75	35.8	3	6	248	0.00	29.864 
16:10	43.1	40.9	43.1	76	36.1	4	6	270	0.00	29.864 
16:15	43.1	43.1	43.1	77	36.4	3	6	270	0.00	29.872 
16:20	42.9	40.7	42.9	77	36.2	4	12	270	0.00	29.872 
16:25	42.9	40.7	42.9	77	36.2	4	9	270	0.00	29.872 
16:30	42.8	40.6	42.8	77	36.1	4	6	270	0.00	29.878 
16:35	42.6	39.5	42.6	77	35.9	5	10	270	0.00	29.878 
16:40	42.5	40.2	42.5	77	35.8	4	7	248	0.00	29.878 
16:45	42.3	39.2	42.3	75	35.0	5	9	270	0.00	29.895 
16:50	42.1	39.7	42.1	72	33.7	4	10	270	0.00	29.895 
16:55	41.8	37.9	41.8	69	32.4	6	12	270	0.00	29.895 
17:00	41.6	38.4	41.6	69	32.2	5	8	270	0.00	29.902 
17:05	41.6	41.6	41.6	70	32.6	3	7	248	0.00	29.902 
17:10	41.5	39.1	41.5	69	32.1	4	7	270	0.00	29.902 
17:15	41.5	41.5	41.5	70	32.5	3	10	248	0.00	29.914 
17:20	41.5	41.5	41.5	71	32.8	3	7	270	0.00	29.914 
17:25	41.3	38.8	41.3	71	32.6	4	10	270	0.00	29.914 
17:30	41.2	38.7	41.2	73	33.2	4	14	248	0.00	29.918 
17:35	40.9	37.5	40.9	73	32.9	5	16	270	0.00	29.918 
17:40	40.6	38.0	40.6	75	33.3	4	10	248	0.00	29.918 
17:45	40.3	36.8	40.3	75	33.0	5	10	248	0.00	29.929 
17:50	40.2	36.7	40.2	75	32.9	5	9	270	0.00	29.929 
17:55	40.1	37.4	40.1	75	32.8	4	10	270	0.00	29.929 
18:00	39.9	37.2	39.9	75	32.6	4	7	248	0.00	29.943 
18:05	39.9	36.4	39.9	75	32.6	5	11	270	0.00	29.943 
18:10	39.8	37.1	39.8	75	32.5	4	12	270	0.00	29.943 
18:15	39.8	36.2	39.8	74	32.2	5	11	270	0.00	29.954 
18:20	39.6	36.0	39.6	75	32.3	5	11	270	0.00	29.954 
18:25	39.5	35.9	39.5	75	32.2	5	9	270	0.00	29.954 
18:30	39.3	35.7	39.3	75	32.0	5	12	270	0.00	29.966 
18:35	39.1	34.7	39.1	74	31.5	6	13	270	0.00	29.966 
18:40	38.8	34.3	38.8	74	31.2	6	14	270	0.00	29.966 
18:45	38.6	35.7	38.6	75	31.4	4	9	270	0.00	29.981 
18:50	38.5	35.6	38.5	75	31.3	4	10	270	0.00	29.981 
18:55	38.3	35.4	38.3	75	31.1	4	10	270	0.00	29.981 
19:00	38.2	35.2	38.2	75	31.0	4	7	270	0.00	30.000 
19:05	37.8	32.5	37.8	75	30.6	7	14	270	0.00	30.000 
19:10	37.2	31.8	37.2	75	30.0	7	14	270	0.00	30.000 
19:15	36.9	32.8	36.9	76	30.1	5	10	270	0.00	30.015 
19:20	36.6	31.7	36.6	75	29.4	6	14	270	0.00	30.015 
19:25	36.0	30.3	36.0	72	27.9	7	13	270	0.00	30.015 
19:30	35.6	29.8	35.6	71	27.1	7	13	270	0.00	30.031 
19:35	35.3	30.2	35.3	71	26.9	6	11	270	0.00	30.031 
19:40	35.0	30.6	35.0	71	26.6	5	10	270	0.00	30.031 
19:45	35.0	31.5	35.0	71	26.6	4	7	270	0.00	30.043 
19:50	34.9	31.4	34.9	72	26.8	4	9	270	0.00	30.043 
19:55	34.9	31.4	34.9	72	26.8	4	7	270	0.00	30.043 
20:00	34.9	30.5	34.9	70	26.1	5	10	270	0.00	30.049 
20:05	34.9	30.5	34.9	70	26.1	5	10	270	0.00	30.049 
20:10	34.9	30.5	34.9	69	25.8	5	8	270	0.00	30.049 
20:15	34.9	31.4	34.9	70	26.1	4	7	270	0.00	30.054 
20:20	34.9	34.9	34.9	70	26.1	3	9	270	0.00	30.054 
20:25	34.9	31.4	34.9	69	25.8	4	7	270	0.00	30.054 
20:30	34.9	31.4	34.9	69	25.8	4	6	270	0.00	30.058 
20:35	34.9	30.5	34.9	67	25.1	5	11	270	0.00	30.058 
20:40	34.9	31.4	34.9	66	24.7	4	10	270	0.00	30.058 
20:45	34.9	31.4	34.9	66	24.7	4	7	270	0.00	30.065 
20:50	34.9	31.4	34.9	67	25.1	4	9	270	0.00	30.065 
20:55	34.9	30.5	34.9	66	24.7	5	12	270	0.00	30.065 
21:00	34.9	31.4	34.9	66	24.7	4	6	248	0.00	30.077 
21:05	34.9	34.9	34.9	66	24.7	3	6	270	0.00	30.077 
21:10	34.9	31.4	34.9	65	24.3	4	7	270	0.00	30.077 
21:15	34.9	31.4	34.9	65	24.3	4	8	270	0.00	30.081 
21:20	34.9	31.4	34.9	65	24.3	4	9	270	0.00	30.081 
21:25	34.9	31.4	34.9	65	24.3	4	6	270	0.00	30.081 
21:30	34.9	30.5	34.9	64	24.0	5	9	270	0.00	30.084 
21:35	34.9	34.9	34.9	65	24.3	3	7	270	0.00	30.084 
21:40	34.9	31.4	34.9	64	24.0	4	6	270	0.00	30.084 
21:45	35.0	35.0	35.0	65	24.4	3	6	270	0.00	30.092 
21:50	35.0	35.0	35.0	65	24.4	3	6	270	0.00	30.092 
21:55	35.0	35.0	35.0	64	24.1	3	6	270	0.00	30.092 
22:00	35.0	35.0	35.0	65	24.4	3	7	270	0.00	30.101 
22:05	35.0	35.0	35.0	65	24.4	3	6	270	0.00	30.101 
22:10	35.0	35.0	35.0	65	24.4	3	8	248	0.00	30.101 
22:15	35.0	35.0	35.0	65	24.4	3	7	270	0.00	30.117 
22:20	35.2	35.2	35.2	64	24.3	3	10	270	0.00	30.117 
22:25	35.2	31.8	35.2	65	24.6	4	7	270	0.00	30.117 
22:30	35.0	35.0	35.0	65	24.4	2	4	248	0.00	30.127 
22:35	35.0	35.0	35.0	66	24.8	2	6	248	0.00	30.127 
22:40	34.9	34.9	34.9	65	24.3	3	6	248	0.00	30.127 
22:45	35.0	31.5	35.0	65	24.4	4	9	248	0.00	30.132 
22:50	35.0	35.0	35.0	65	24.4	3	6	248	0.00	30.132 
22:55	35.0	35.0	35.0	65	24.4	3	7	248	0.00	30.132 
23:00	35.0	35.0	35.0	65	24.4	3	6	248	0.00	30.134 
23:05	35.0	35.0	35.0	65	24.4	3	7	248	0.00	30.134 
23:10	34.9	31.4	34.9	65	24.3	4	10	248	0.00	30.134 
23:15	34.9	34.9	34.9	65	24.3	3	6	270	0.00	30.137 
23:20	34.9	34.9	34.9	66	24.7	3	5	248	0.00	30.137 
23:25	34.9	34.9	34.9	65	24.3	3	6	270	0.00	30.137 
23:30	34.9	34.9	34.9	65	24.3	3	6	270	0.00	30.145 
23:35	34.9	34.9	34.9	65	24.3	3	7	270	0.00	30.145 
23:40	34.9	34.9	34.9	65	24.3	3	5	270	0.00	30.145 
23:45	34.9	34.9	34.9	65	24.3	3	6	270	0.00	30.146 
23:50	34.9	31.4	34.9	64	24.0	4	9	270	0.00	30.146 
23:55	34.9	34.9	34.9	65	24.3	3	9	270	0.00	30.146 

CoCoRaHS
IN-AL-39
A2 Web Hosting
Creative Commons License
GoDaddy
search engine by freefind advanced

loaded 2018-11-17 14:10:42 • last modified 2010-11-18 10:43:29
Privacy PolicyDisclaimer
• wx.awcolley.com is powered by PmWiki v.2002016 •
• all content (unless otherwise noted) © 2018 A W Colley